FYOG

Oranjemund Airport

Airport
ICAO code
FYOG
IATA Code
OMD
Summary
ICAO Region
AFI
ICAO Territory
Location

Oranjemund, IIKaras

Serving
Oranjemund
Elevation
13 ft
Coordinates
28° 35' 5" S , 16° 26' 45" E
KCC
Metar
FYOG 220100Z AUTO 16009KT CAVOK 15/15 Q1013

Oranjemund Airport is an airport serving Oranjemund, a town in the ǁKaras Region of Namibia. The town and airport are located near the northern bank of the Orange River, which is the border between Namibia and South Africa.

Climatology

Cold desert climate (Köppen climate classification BWk)

Runways

Designator Length Width Surface Rops
7/25 914 14 GVL No/No
16/34 1067 18 GVL No/No
2/20 1601 18 ASP No/No

Airport map

Aerial View

SKYbrary Partners:

Safety knowledge contributed by: